Time,TemperatureF,DewpointF,PressureIn,WindDirection,WindDirectionDegrees,WindSpeedMPH,WindSpeedGustMPH,Humidity,HourlyPrecipIn,Conditions,Clouds,dailyrainin,SoftwareType,DateUTC
2017-02-20 00:05:00,55.0,52.4,29.83,SE,137,10.0,21.0,91,0.00,CLR,,0.01,WeatherDisplay:10.37,2017-02-20 08:05:00,
2017-02-20 00:10:00,55.1,52.5,29.83,SE,125,13.8,13.8,91,0.04,RA,,0.01,WeatherDisplay:10.37,2017-02-20 08:10:00,
2017-02-20 00:15:00,55.1,52.5,29.83,South,180,10.4,10.4,91,0.04,RA,,0.01,WeatherDisplay:10.37,2017-02-20 08:15:00,
2017-02-20 00:20:00,55.3,52.7,29.84,South,173,8.1,8.1,91,0.04,CLR,,0.01,WeatherDisplay:10.37,2017-02-20 08:20:00,
2017-02-20 00:25:00,55.5,53.2,29.84,ESE,119,8.1,8.1,92,0.04,CLR,,0.01,WeatherDisplay:10.37,2017-02-20 08:25:00,
2017-02-20 00:30:00,55.7,53.4,29.84,South,180,11.5,11.5,92,0.03,CLR,,0.01,WeatherDisplay:10.37,2017-02-20 08:30:00,
2017-02-20 00:35:00,55.9,53.6,29.83,SE,132,10.4,10.4,92,0.02,CLR,,0.01,WeatherDisplay:10.37,2017-02-20 08:35:00,
2017-02-20 00:40:00,56.1,53.8,29.82,SSE,161,18.4,18.4,92,0.01,CLR,,0.01,WeatherDisplay:10.37,2017-02-20 08:40:00,
2017-02-20 00:45:00,56.3,54.0,29.82,SE,138,11.5,11.5,92,0.01,CLR,,0.01,WeatherDisplay:10.37,2017-02-20 08:45:00,
2017-02-20 00:50:00,56.5,54.2,29.82,SE,143,15.0,15.0,92,0.01,CLR,,0.01,WeatherDisplay:10.37,2017-02-20 08:50:00,
2017-02-20 00:55:00,56.6,54.0,29.82,South,170,18.4,18.4,91,0.01,CLR,,0.01,WeatherDisplay:10.37,2017-02-20 08:55:00,
2017-02-20 01:00:00,56.8,54.2,29.82,SE,140,15.0,15.0,91,0.01,CLR,,0.01,WeatherDisplay:10.37,2017-02-20 09:00:00,
2017-02-20 01:05:00,57.0,54.4,29.82,SE,145,16.0,16.0,91,0.01,CLR,,0.01,WeatherDisplay:10.37,2017-02-20 09:05:00,
2017-02-20 01:10:00,57.3,54.7,29.82,SE,125,16.1,16.1,91,0.00,CLR,,0.01,WeatherDisplay:10.37,2017-02-20 09:10:00,
2017-02-20 01:15:00,57.5,54.9,29.82,SSE,159,16.1,16.1,91,0.00,CLR,,0.01,WeatherDisplay:10.37,2017-02-20 09:15:00,
2017-02-20 01:20:00,57.6,55.0,29.82,SE,144,19.6,19.6,91,0.00,CLR,,0.01,WeatherDisplay:10.37,2017-02-20 09:20:00,
2017-02-20 01:25:00,57.6,54.7,29.83,SSE,149,23.0,23.0,90,0.00,CLR,,0.01,WeatherDisplay:10.37,2017-02-20 09:25:00,
2017-02-20 01:49:00,57.2,54.6,29.83,SSE,159,23.0,23.0,91,0.07,RA,,0.08,WeatherDisplay:10.37,2017-02-20 09:49:00,
2017-02-20 01:54:00,57.1,54.5,29.84,SSE,150,11.5,11.5,91,0.07,RA,,0.08,WeatherDisplay:10.37,2017-02-20 09:54:00,
2017-02-20 01:59:00,57.0,54.7,29.84,SSE,148,13.8,13.8,92,0.08,RA,,0.09,WeatherDisplay:10.37,2017-02-20 09:59:00,
2017-02-20 02:04:00,56.9,54.6,29.84,SSE,160,10.4,10.4,92,0.09,RA,,0.10,WeatherDisplay:10.37,2017-02-20 10:04:00,
2017-02-20 02:09:00,56.8,54.5,29.84,SSE,154,11.5,11.5,92,0.11,RA,,0.12,WeatherDisplay:10.37,2017-02-20 10:09:00,
2017-02-20 02:14:00,56.8,54.5,29.84,ESE,120,13.8,13.8,92,0.12,RA,,0.13,WeatherDisplay:10.37,2017-02-20 10:14:00,
2017-02-20 02:19:00,56.8,54.5,29.84,SE,135,11.5,11.5,92,0.13,RA,,0.14,WeatherDisplay:10.37,2017-02-20 10:19:00,
2017-02-20 02:24:00,56.8,54.8,29.83,SSE,153,15.0,15.0,93,0.14,RA,,0.15,WeatherDisplay:10.37,2017-02-20 10:24:00,
2017-02-20 02:29:00,56.8,54.8,29.84,SSE,155,15.0,15.0,93,0.14,RA,,0.15,WeatherDisplay:10.37,2017-02-20 10:29:00,
2017-02-20 02:34:00,56.8,54.8,29.84,South,180,11.5,11.5,93,0.13,RA,,0.16,WeatherDisplay:10.37,2017-02-20 10:34:00,
2017-02-20 02:39:00,56.8,54.8,29.84,SE,142,11.5,11.5,93,0.17,RA,,0.20,WeatherDisplay:10.37,2017-02-20 10:39:00,
2017-02-20 02:44:00,56.8,54.8,29.83,SSE,149,11.5,11.5,93,0.17,RA,,0.24,WeatherDisplay:10.37,2017-02-20 10:44:00,
2017-02-20 02:49:00,56.7,54.7,29.83,SSE,153,11.5,11.5,93,0.20,RA,,0.28,WeatherDisplay:10.37,2017-02-20 10:49:00,
2017-02-20 02:54:00,56.6,54.6,29.84,SE,145,11.5,11.5,93,0.23,RA,,0.32,WeatherDisplay:10.37,2017-02-20 10:54:00,
2017-02-20 02:59:00,56.5,54.5,29.84,SSE,147,12.0,12.0,93,0.25,RA,,0.34,WeatherDisplay:10.37,2017-02-20 10:59:00,
2017-02-20 03:04:00,56.4,54.4,29.84,ESE,121,12.7,12.7,93,0.27,RA,,0.37,WeatherDisplay:10.37,2017-02-20 11:04:00,
2017-02-20 03:09:00,56.4,54.7,29.83,SE,146,11.5,11.5,94,0.26,RA,,0.38,WeatherDisplay:10.37,2017-02-20 11:09:00,
2017-02-20 03:14:00,56.4,54.7,29.84,SSE,165,10.0,10.0,94,0.27,RA,,0.40,WeatherDisplay:10.37,2017-02-20 11:14:00,
2017-02-20 03:19:00,56.3,54.6,29.84,ESE,123,6.9,6.9,94,0.28,RA,,0.42,WeatherDisplay:10.37,2017-02-20 11:19:00,
2017-02-20 03:24:00,56.4,54.7,29.83,SSE,148,8.1,8.1,94,0.28,RA,,0.43,WeatherDisplay:10.37,2017-02-20 11:24:00,
2017-02-20 03:29:00,56.4,54.7,29.83,SE,146,11.5,11.5,94,0.29,RA,,0.44,WeatherDisplay:10.37,2017-02-20 11:29:00,
2017-02-20 03:34:00,56.4,54.7,29.84,SSE,148,3.5,3.5,94,0.29,RA,,0.45,WeatherDisplay:10.37,2017-02-20 11:34:00,
2017-02-20 03:39:00,56.4,54.7,29.84,SSE,149,2.3,2.3,94,0.26,RA,,0.46,WeatherDisplay:10.37,2017-02-20 11:39:00,
2017-02-20 03:44:00,56.4,54.7,29.84,SSE,149,2.3,2.3,94,0.26,RA,,0.50,WeatherDisplay:10.37,2017-02-20 11:44:00,
2017-02-20 03:59:00,56.2,54.5,29.86,South,170,9.0,9.0,94,0.26,RA,,0.60,WeatherDisplay:10.37,2017-02-20 11:59:00,
2017-02-20 04:04:00,56.1,54.4,29.86,SSE,156,14.0,14.0,94,0.24,RA,,0.61,WeatherDisplay:10.37,2017-02-20 12:04:00,
2017-02-20 04:09:00,56.3,54.9,29.85,SSE,165,20.7,20.7,95,0.23,RA,,0.61,WeatherDisplay:10.37,2017-02-20 12:09:00,
2017-02-20 04:14:00,56.6,55.2,29.85,SE,136,18.4,18.4,95,0.22,RA,,0.62,WeatherDisplay:10.37,2017-02-20 12:14:00,
2017-02-20 04:19:00,56.4,54.7,29.86,SSW,201,11.5,11.5,94,0.20,RA,,0.62,WeatherDisplay:10.37,2017-02-20 12:19:00,
2017-02-20 04:24:00,56.5,55.1,29.87,SW,218,23.0,23.0,95,0.20,RA,,0.63,WeatherDisplay:10.37,2017-02-20 12:24:00,
2017-02-20 04:29:00,56.5,55.1,29.86,South,191,19.6,19.6,95,0.21,RA,,0.65,WeatherDisplay:10.37,2017-02-20 12:29:00,
2017-02-20 04:34:00,56.4,55.0,29.86,SSW,193,16.1,16.1,95,0.21,RA,,0.66,WeatherDisplay:10.37,2017-02-20 12:34:00,
2017-02-20 04:39:00,56.4,55.0,29.86,SSW,198,15.0,15.0,95,0.20,RA,,0.66,WeatherDisplay:10.37,2017-02-20 12:39:00,
2017-02-20 04:44:00,56.4,55.0,29.85,South,182,17.3,17.3,95,0.16,,,0.66,WeatherDisplay:10.37,2017-02-20 12:44:00,
2017-02-20 04:49:00,56.4,55.0,29.86,SSW,211,16.1,16.1,95,0.12,CLR,,0.66,WeatherDisplay:10.37,2017-02-20 12:49:00,
2017-02-20 04:54:00,56.4,55.0,29.86,South,178,17.3,17.3,95,0.09,RA,,0.67,WeatherDisplay:10.37,2017-02-20 12:54:00,
2017-02-20 04:59:00,56.7,55.3,29.84,SSE,165,25.0,25.0,95,0.08,RA,,0.68,WeatherDisplay:10.37,2017-02-20 12:59:00,
2017-02-20 05:04:00,56.9,55.5,29.86,South,190,19.6,19.6,95,0.07,RA,,0.68,WeatherDisplay:10.37,2017-02-20 13:04:00,
2017-02-20 05:11:00,57.0,55.6,29.86,SSE,157,16.1,16.1,95,0.06,CLR,,0.68,WeatherDisplay:10.37,2017-02-20 13:11:00,
2017-02-20 05:16:00,57.0,55.6,29.85,SSE,148,17.0,17.0,95,0.07,RA,,0.69,WeatherDisplay:10.37,2017-02-20 13:16:00,
2017-02-20 05:21:00,57.0,55.6,29.85,South,183,12.7,12.7,95,0.07,RA,,0.69,WeatherDisplay:10.37,2017-02-20 13:21:00,
2017-02-20 05:26:00,57.0,55.6,29.88,SW,217,15.0,15.0,95,0.05,CLR,,0.69,WeatherDisplay:10.37,2017-02-20 13:26:00,
2017-02-20 05:31:00,56.9,55.5,29.88,South,169,16.1,16.1,95,0.04,CLR,,0.69,WeatherDisplay:10.37,2017-02-20 13:31:00,
2017-02-20 05:36:00,56.9,55.5,29.89,South,187,14.0,14.0,95,0.03,CLR,,0.69,WeatherDisplay:10.37,2017-02-20 13:36:00,
2017-02-20 05:41:00,56.9,55.5,29.88,SSW,213,17.3,17.3,95,0.03,CLR,,0.69,WeatherDisplay:10.37,2017-02-20 13:41:00,
2017-02-20 05:46:00,57.1,55.7,29.89,SSW,196,17.3,17.3,95,0.03,CLR,,0.69,WeatherDisplay:10.37,2017-02-20 13:46:00,
2017-02-20 05:51:00,57.1,56.0,29.89,SSW,194,12.7,12.7,96,0.03,CLR,,0.69,WeatherDisplay:10.37,2017-02-20 13:51:00,
2017-02-20 05:56:00,57.1,55.7,29.88,SW,217,12.7,12.7,95,0.02,CLR,,0.69,WeatherDisplay:10.37,2017-02-20 13:56:00,
2017-02-20 06:01:00,57.0,55.6,29.87,South,186,11.5,11.5,95,0.02,RA,,0.70,WeatherDisplay:10.37,2017-02-20 14:01:00,
2017-02-20 06:06:00,57.0,55.6,29.86,SE,146,12.0,12.0,95,0.02,RA,,0.70,WeatherDisplay:10.37,2017-02-20 14:06:00,
2017-02-20 06:11:00,57.1,55.7,29.86,SSE,157,11.0,11.0,95,0.02,CLR,,0.70,WeatherDisplay:10.37,2017-02-20 14:11:00,
2017-02-20 06:16:00,57.1,55.7,29.86,SSE,154,12.7,12.7,95,0.01,CLR,,0.70,WeatherDisplay:10.37,2017-02-20 14:16:00,
2017-02-20 06:21:00,57.1,55.7,29.86,SSE,157,10.4,10.4,95,0.01,CLR,,0.70,WeatherDisplay:10.37,2017-02-20 14:21:00,
2017-02-20 06:26:00,57.1,56.0,29.86,South,177,10.4,10.4,96,0.01,CLR,,0.70,WeatherDisplay:10.37,2017-02-20 14:26:00,
2017-02-20 06:31:00,57.1,56.0,29.87,SSE,161,9.2,9.2,96,0.01,CLR,,0.70,WeatherDisplay:10.37,2017-02-20 14:31:00,
2017-02-20 06:36:00,57.0,55.6,29.89,South,186,8.1,8.1,95,0.01,CLR,,0.70,WeatherDisplay:10.37,2017-02-20 14:36:00,
2017-02-20 06:41:00,56.9,55.5,29.90,SW,233,10.4,10.4,95,0.01,CLR,,0.70,WeatherDisplay:10.37,2017-02-20 14:41:00,
2017-02-20 06:46:00,56.7,55.6,29.89,SSW,192,5.8,5.8,96,0.01,CLR,,0.70,WeatherDisplay:10.37,2017-02-20 14:46:00,
2017-02-20 06:51:00,56.6,55.5,29.90,SW,217,6.0,6.0,96,0.01,CLR,,0.70,WeatherDisplay:10.37,2017-02-20 14:51:00,
2017-02-20 06:56:00,56.6,55.5,29.91,WSW,246,4.0,4.0,96,0.01,CLR,,0.70,WeatherDisplay:10.37,2017-02-20 14:56:00,